sensor_id;sensor_type;location;lat;lon;timestamp;P1;durP1;ratioP1;P2;durP2;ratioP2
68310;SDS011;55157;51.036;17.058;2022-11-20T00:02:00;110.93;;;50.72;;
68310;SDS011;55157;51.036;17.058;2022-11-20T00:04:25;149.43;;;63.00;;
68310;SDS011;55157;51.036;17.058;2022-11-20T00:06:51;168.45;;;67.13;;
68310;SDS011;55157;51.036;17.058;2022-11-20T00:09:16;124.43;;;54.08;;
68310;SDS011;55157;51.036;17.058;2022-11-20T00:11:41;121.00;;;50.38;;
68310;SDS011;55157;51.036;17.058;2022-11-20T00:14:06;85.43;;;39.13;;
68310;SDS011;55157;51.036;17.058;2022-11-20T00:16:33;90.22;;;40.63;;
68310;SDS011;55157;51.036;17.058;2022-11-20T00:18:58;85.53;;;39.70;;
68310;SDS011;55157;51.036;17.058;2022-11-20T00:21:24;86.05;;;39.63;;
68310;SDS011;55157;51.036;17.058;2022-11-20T00:23:50;74.43;;;32.33;;
68310;SDS011;55157;51.036;17.058;2022-11-20T00:26:16;81.35;;;35.60;;
68310;SDS011;55157;51.036;17.058;2022-11-20T00:28:42;87.97;;;36.70;;
68310;SDS011;55157;51.036;17.058;2022-11-20T00:31:08;85.88;;;35.88;;
68310;SDS011;55157;51.036;17.058;2022-11-20T00:33:37;87.32;;;36.65;;
68310;SDS011;55157;51.036;17.058;2022-11-20T00:36:02;89.22;;;38.53;;
68310;SDS011;55157;51.036;17.058;2022-11-20T00:38:28;111.35;;;46.72;;
68310;SDS011;55157;51.036;17.058;2022-11-20T00:40:54;93.97;;;39.05;;
68310;SDS011;55157;51.036;17.058;2022-11-20T00:43:20;82.68;;;35.22;;
68310;SDS011;55157;51.036;17.058;2022-11-20T00:45:45;89.65;;;38.45;;
68310;SDS011;55157;51.036;17.058;2022-11-20T00:48:10;79.47;;;34.55;;
68310;SDS011;55157;51.036;17.058;2022-11-20T00:50:37;70.78;;;33.83;;
68310;SDS011;55157;51.036;17.058;2022-11-20T00:53:02;74.68;;;32.63;;
68310;SDS011;55157;51.036;17.058;2022-11-20T00:55:27;77.50;;;34.53;;
68310;SDS011;55157;51.036;17.058;2022-11-20T00:57:52;79.53;;;34.13;;
68310;SDS011;55157;51.036;17.058;2022-11-20T01:00:18;73.03;;;33.13;;
68310;SDS011;55157;51.036;17.058;2022-11-20T01:02:43;67.60;;;32.30;;
68310;SDS011;55157;51.036;17.058;2022-11-20T01:05:08;115.80;;;42.60;;
68310;SDS011;55157;51.036;17.058;2022-11-20T01:07:35;85.00;;;37.35;;
68310;SDS011;55157;51.036;17.058;2022-11-20T01:10:00;77.70;;;32.83;;
68310;SDS011;55157;51.036;17.058;2022-11-20T01:12:25;72.85;;;32.05;;
68310;SDS011;55157;51.036;17.058;2022-11-20T01:14:51;82.25;;;33.97;;
68310;SDS011;55157;51.036;17.058;2022-11-20T01:17:16;87.65;;;36.13;;
68310;SDS011;55157;51.036;17.058;2022-11-20T01:19:41;107.78;;;40.97;;
68310;SDS011;55157;51.036;17.058;2022-11-20T01:22:06;108.05;;;40.60;;
68310;SDS011;55157;51.036;17.058;2022-11-20T01:24:33;111.55;;;38.80;;
68310;SDS011;55157;51.036;17.058;2022-11-20T01:26:58;125.47;;;44.70;;
68310;SDS011;55157;51.036;17.058;2022-11-20T01:29:24;107.97;;;40.17;;
68310;SDS011;55157;51.036;17.058;2022-11-20T01:31:49;112.00;;;42.22;;
68310;SDS011;55157;51.036;17.058;2022-11-20T01:34:15;114.68;;;45.30;;
68310;SDS011;55157;51.036;17.058;2022-11-20T01:36:41;100.90;;;39.38;;
68310;SDS011;55157;51.036;17.058;2022-11-20T01:39:07;96.22;;;38.55;;
68310;SDS011;55157;51.036;17.058;2022-11-20T01:41:36;97.97;;;42.42;;
68310;SDS011;55157;51.036;17.058;2022-11-20T01:44:01;84.25;;;37.92;;
68310;SDS011;55157;51.036;17.058;2022-11-20T01:46:27;83.00;;;35.45;;
68310;SDS011;55157;51.036;17.058;2022-11-20T01:48:53;74.47;;;32.35;;
68310;SDS011;55157;51.036;17.058;2022-11-20T01:51:21;77.47;;;34.60;;
68310;SDS011;55157;51.036;17.058;2022-11-20T01:53:47;74.30;;;33.30;;
68310;SDS011;55157;51.036;17.058;2022-11-20T01:56:13;66.78;;;31.45;;
68310;SDS011;55157;51.036;17.058;2022-11-20T01:58:41;77.40;;;32.00;;
68310;SDS011;55157;51.036;17.058;2022-11-20T02:01:07;69.05;;;28.67;;
68310;SDS011;55157;51.036;17.058;2022-11-20T02:03:33;69.90;;;30.85;;
68310;SDS011;55157;51.036;17.058;2022-11-20T02:06:01;61.83;;;26.35;;
68310;SDS011;55157;51.036;17.058;2022-11-20T02:08:28;64.63;;;30.48;;
68310;SDS011;55157;51.036;17.058;2022-11-20T02:10:54;69.60;;;30.23;;
68310;SDS011;55157;51.036;17.058;2022-11-20T02:13:19;73.47;;;30.95;;
68310;SDS011;55157;51.036;17.058;2022-11-20T02:15:46;71.85;;;32.65;;
68310;SDS011;55157;51.036;17.058;2022-11-20T02:18:12;69.78;;;30.33;;
68310;SDS011;55157;51.036;17.058;2022-11-20T02:20:38;79.75;;;36.30;;
68310;SDS011;55157;51.036;17.058;2022-11-20T02:23:06;81.45;;;34.33;;
68310;SDS011;55157;51.036;17.058;2022-11-20T02:25:35;83.18;;;33.72;;
68310;SDS011;55157;51.036;17.058;2022-11-20T02:28:01;90.63;;;34.95;;
68310;SDS011;55157;51.036;17.058;2022-11-20T02:30:26;86.60;;;35.95;;
68310;SDS011;55157;51.036;17.058;2022-11-20T02:32:52;90.10;;;35.85;;
68310;SDS011;55157;51.036;17.058;2022-11-20T02:38:01;86.90;;;35.95;;
68310;SDS011;55157;51.036;17.058;2022-11-20T02:40:27;78.90;;;33.75;;
68310;SDS011;55157;51.036;17.058;2022-11-20T02:42:54;72.00;;;32.72;;
68310;SDS011;55157;51.036;17.058;2022-11-20T02:45:20;70.03;;;32.08;;
68310;SDS011;55157;51.036;17.058;2022-11-20T02:47:45;75.72;;;33.30;;
68310;SDS011;55157;51.036;17.058;2022-11-20T02:50:10;70.38;;;29.95;;
68310;SDS011;55157;51.036;17.058;2022-11-20T02:52:36;68.47;;;30.63;;
68310;SDS011;55157;51.036;17.058;2022-11-20T02:55:01;66.47;;;31.05;;
68310;SDS011;55157;51.036;17.058;2022-11-20T02:57:26;69.10;;;32.22;;
68310;SDS011;55157;51.036;17.058;2022-11-20T02:59:53;67.57;;;30.75;;
68310;SDS011;55157;51.036;17.058;2022-11-20T03:02:18;70.70;;;32.00;;
68310;SDS011;55157;51.036;17.058;2022-11-20T03:04:43;75.68;;;32.60;;
68310;SDS011;55157;51.036;17.058;2022-11-20T03:07:08;76.80;;;31.52;;
68310;SDS011;55157;51.036;17.058;2022-11-20T03:09:34;77.60;;;32.05;;
68310;SDS011;55157;51.036;17.058;2022-11-20T03:11:59;77.03;;;33.30;;
68310;SDS011;55157;51.036;17.058;2022-11-20T03:14:24;76.78;;;31.45;;
68310;SDS011;55157;51.036;17.058;2022-11-20T03:16:51;70.90;;;30.50;;
68310;SDS011;55157;51.036;17.058;2022-11-20T03:19:16;67.70;;;31.92;;
68310;SDS011;55157;51.036;17.058;2022-11-20T03:21:41;66.78;;;30.52;;
68310;SDS011;55157;51.036;17.058;2022-11-20T03:24:07;71.32;;;31.42;;
68310;SDS011;55157;51.036;17.058;2022-11-20T03:26:32;68.70;;;31.50;;
68310;SDS011;55157;51.036;17.058;2022-11-20T03:28:58;77.07;;;34.85;;
68310;SDS011;55157;51.036;17.058;2022-11-20T03:31:24;74.28;;;34.20;;
68310;SDS011;55157;51.036;17.058;2022-11-20T03:33:51;89.43;;;40.40;;
68310;SDS011;55157;51.036;17.058;2022-11-20T03:36:17;88.90;;;40.80;;
68310;SDS011;55157;51.036;17.058;2022-11-20T03:38:43;78.20;;;36.53;;
68310;SDS011;55157;51.036;17.058;2022-11-20T03:41:09;79.45;;;36.13;;
68310;SDS011;55157;51.036;17.058;2022-11-20T03:43:35;83.00;;;36.28;;
68310;SDS011;55157;51.036;17.058;2022-11-20T03:46:00;75.85;;;33.25;;
68310;SDS011;55157;51.036;17.058;2022-11-20T03:48:25;80.35;;;35.22;;
68310;SDS011;55157;51.036;17.058;2022-11-20T03:50:52;70.50;;;32.00;;
68310;SDS011;55157;51.036;17.058;2022-11-20T03:53:18;68.72;;;30.67;;
68310;SDS011;55157;51.036;17.058;2022-11-20T03:55:43;66.85;;;30.98;;
68310;SDS011;55157;51.036;17.058;2022-11-20T03:58:09;70.07;;;31.02;;
68310;SDS011;55157;51.036;17.058;2022-11-20T04:00:34;70.13;;;30.27;;
68310;SDS011;55157;51.036;17.058;2022-11-20T04:02:59;58.38;;;28.55;;
68310;SDS011;55157;51.036;17.058;2022-11-20T04:05:25;63.97;;;28.00;;
68310;SDS011;55157;51.036;17.058;2022-11-20T04:07:51;62.92;;;26.95;;
68310;SDS011;55157;51.036;17.058;2022-11-20T04:10:17;60.97;;;28.67;;
68310;SDS011;55157;51.036;17.058;2022-11-20T04:12:42;63.97;;;29.13;;
68310;SDS011;55157;51.036;17.058;2022-11-20T04:15:07;61.20;;;27.60;;
68310;SDS011;55157;51.036;17.058;2022-11-20T04:17:33;64.30;;;29.33;;
68310;SDS011;55157;51.036;17.058;2022-11-20T04:19:58;62.42;;;28.77;;
68310;SDS011;55157;51.036;17.058;2022-11-20T04:22:23;55.88;;;26.58;;
68310;SDS011;55157;51.036;17.058;2022-11-20T04:24:50;64.95;;;29.23;;
68310;SDS011;55157;51.036;17.058;2022-11-20T04:27:15;60.20;;;26.85;;
68310;SDS011;55157;51.036;17.058;2022-11-20T04:29:40;63.78;;;28.02;;
68310;SDS011;55157;51.036;17.058;2022-11-20T04:32:06;63.58;;;29.05;;
68310;SDS011;55157;51.036;17.058;2022-11-20T04:34:31;61.63;;;27.92;;
68310;SDS011;55157;51.036;17.058;2022-11-20T04:36:56;54.28;;;28.23;;
68310;SDS011;55157;51.036;17.058;2022-11-20T04:39:21;73.72;;;31.33;;
68310;SDS011;55157;51.036;17.058;2022-11-20T04:41:48;62.03;;;29.35;;
68310;SDS011;55157;51.036;17.058;2022-11-20T04:44:13;84.47;;;30.67;;
68310;SDS011;55157;51.036;17.058;2022-11-20T04:46:39;70.93;;;32.70;;
68310;SDS011;55157;51.036;17.058;2022-11-20T04:49:05;67.63;;;29.98;;
68310;SDS011;55157;51.036;17.058;2022-11-20T04:51:30;71.85;;;31.50;;
68310;SDS011;55157;51.036;17.058;2022-11-20T04:53:55;74.45;;;34.45;;
68310;SDS011;55157;51.036;17.058;2022-11-20T04:56:20;68.15;;;33.78;;
68310;SDS011;55157;51.036;17.058;2022-11-20T04:58:47;72.20;;;32.47;;
68310;SDS011;55157;51.036;17.058;2022-11-20T05:01:13;73.55;;;34.08;;
68310;SDS011;55157;51.036;17.058;2022-11-20T05:03:39;72.53;;;33.20;;
68310;SDS011;55157;51.036;17.058;2022-11-20T05:06:05;71.70;;;34.50;;
68310;SDS011;55157;51.036;17.058;2022-11-20T05:08:31;69.88;;;33.05;;
68310;SDS011;55157;51.036;17.058;2022-11-20T05:10:59;78.25;;;35.80;;
68310;SDS011;55157;51.036;17.058;2022-11-20T05:13:24;74.82;;;37.50;;
68310;SDS011;55157;51.036;17.058;2022-11-20T05:15:51;84.60;;;37.58;;
68310;SDS011;55157;51.036;17.058;2022-11-20T05:18:16;74.63;;;35.83;;
68310;SDS011;55157;51.036;17.058;2022-11-20T05:20:41;81.35;;;37.30;;
68310;SDS011;55157;51.036;17.058;2022-11-20T05:23:06;78.13;;;32.95;;
68310;SDS011;55157;51.036;17.058;2022-11-20T05:25:32;84.60;;;37.75;;
68310;SDS011;55157;51.036;17.058;2022-11-20T05:27:57;80.22;;;35.80;;
68310;SDS011;55157;51.036;17.058;2022-11-20T05:30:22;83.00;;;36.33;;
68310;SDS011;55157;51.036;17.058;2022-11-20T05:32:49;75.57;;;34.03;;
68310;SDS011;55157;51.036;17.058;2022-11-20T05:35:14;78.93;;;36.35;;
68310;SDS011;55157;51.036;17.058;2022-11-20T05:37:39;77.32;;;35.50;;
68310;SDS011;55157;51.036;17.058;2022-11-20T05:40:05;81.40;;;36.28;;
68310;SDS011;55157;51.036;17.058;2022-11-20T05:42:31;84.70;;;36.67;;
68310;SDS011;55157;51.036;17.058;2022-11-20T05:44:56;75.78;;;35.67;;
68310;SDS011;55157;51.036;17.058;2022-11-20T05:47:21;75.85;;;37.03;;
68310;SDS011;55157;51.036;17.058;2022-11-20T05:49:48;77.57;;;35.97;;
68310;SDS011;55157;51.036;17.058;2022-11-20T05:52:13;82.45;;;36.15;;
68310;SDS011;55157;51.036;17.058;2022-11-20T05:54:38;81.88;;;34.25;;
68310;SDS011;55157;51.036;17.058;2022-11-20T05:57:04;73.82;;;34.65;;
68310;SDS011;55157;51.036;17.058;2022-11-20T05:59:29;79.88;;;34.95;;
68310;SDS011;55157;51.036;17.058;2022-11-20T06:01:54;87.05;;;34.92;;
68310;SDS011;55157;51.036;17.058;2022-11-20T06:04:20;77.88;;;35.15;;
68310;SDS011;55157;51.036;17.058;2022-11-20T06:06:46;80.63;;;33.17;;
68310;SDS011;55157;51.036;17.058;2022-11-20T06:09:11;82.97;;;36.75;;
68310;SDS011;55157;51.036;17.058;2022-11-20T06:11:37;78.47;;;35.22;;
68310;SDS011;55157;51.036;17.058;2022-11-20T06:14:02;79.50;;;35.30;;
68310;SDS011;55157;51.036;17.058;2022-11-20T06:16:27;85.97;;;36.90;;
68310;SDS011;55157;51.036;17.058;2022-11-20T06:18:52;82.70;;;37.30;;
68310;SDS011;55157;51.036;17.058;2022-11-20T06:21:19;89.57;;;39.15;;
68310;SDS011;55157;51.036;17.058;2022-11-20T06:23:46;77.53;;;36.20;;
68310;SDS011;55157;51.036;17.058;2022-11-20T06:26:12;78.95;;;37.35;;
68310;SDS011;55157;51.036;17.058;2022-11-20T06:28:37;76.07;;;35.03;;
68310;SDS011;55157;51.036;17.058;2022-11-20T06:31:03;72.65;;;33.88;;
68310;SDS011;55157;51.036;17.058;2022-11-20T06:33:28;79.97;;;34.97;;
68310;SDS011;55157;51.036;17.058;2022-11-20T06:35:55;70.97;;;35.78;;
68310;SDS011;55157;51.036;17.058;2022-11-20T06:38:20;77.75;;;35.08;;
68310;SDS011;55157;51.036;17.058;2022-11-20T06:40:47;75.15;;;34.67;;
68310;SDS011;55157;51.036;17.058;2022-11-20T06:43:12;72.47;;;33.65;;
68310;SDS011;55157;51.036;17.058;2022-11-20T06:45:38;76.47;;;34.75;;
68310;SDS011;55157;51.036;17.058;2022-11-20T06:48:03;72.38;;;33.45;;
68310;SDS011;55157;51.036;17.058;2022-11-20T06:50:28;78.22;;;36.53;;
68310;SDS011;55157;51.036;17.058;2022-11-20T06:52:54;75.72;;;35.25;;
68310;SDS011;55157;51.036;17.058;2022-11-20T06:55:19;68.00;;;33.65;;
68310;SDS011;55157;51.036;17.058;2022-11-20T06:57:45;88.35;;;40.00;;
68310;SDS011;55157;51.036;17.058;2022-11-20T07:00:11;88.88;;;41.10;;
68310;SDS011;55157;51.036;17.058;2022-11-20T07:02:36;95.88;;;37.35;;
68310;SDS011;55157;51.036;17.058;2022-11-20T07:05:02;86.65;;;37.85;;
68310;SDS011;55157;51.036;17.058;2022-11-20T07:07:27;87.97;;;39.25;;
68310;SDS011;55157;51.036;17.058;2022-11-20T07:09:52;136.23;;;53.38;;
68310;SDS011;55157;51.036;17.058;2022-11-20T07:12:17;154.02;;;59.50;;
68310;SDS011;55157;51.036;17.058;2022-11-20T07:14:44;161.13;;;59.20;;
68310;SDS011;55157;51.036;17.058;2022-11-20T07:17:09;132.48;;;54.63;;
68310;SDS011;55157;51.036;17.058;2022-11-20T07:19:35;118.32;;;51.70;;
68310;SDS011;55157;51.036;17.058;2022-11-20T07:22:00;107.45;;;45.40;;
68310;SDS011;55157;51.036;17.058;2022-11-20T07:24:25;106.47;;;44.25;;
68310;SDS011;55157;51.036;17.058;2022-11-20T07:26:50;101.50;;;43.25;;
68310;SDS011;55157;51.036;17.058;2022-11-20T07:29:16;93.53;;;43.80;;
68310;SDS011;55157;51.036;17.058;2022-11-20T07:31:42;97.65;;;42.88;;
68310;SDS011;55157;51.036;17.058;2022-11-20T07:34:08;83.32;;;40.35;;
68310;SDS011;55157;51.036;17.058;2022-11-20T07:36:33;90.13;;;41.35;;
68310;SDS011;55157;51.036;17.058;2022-11-20T07:38:58;87.45;;;37.05;;
68310;SDS011;55157;51.036;17.058;2022-11-20T07:41:23;88.50;;;37.70;;
68310;SDS011;55157;51.036;17.058;2022-11-20T07:43:48;78.65;;;36.72;;
68310;SDS011;55157;51.036;17.058;2022-11-20T07:46:14;81.70;;;37.63;;
68310;SDS011;55157;51.036;17.058;2022-11-20T07:48:40;79.05;;;39.30;;
68310;SDS011;55157;51.036;17.058;2022-11-20T07:51:06;80.47;;;38.13;;
68310;SDS011;55157;51.036;17.058;2022-11-20T07:53:31;76.05;;;40.17;;
68310;SDS011;55157;51.036;17.058;2022-11-20T07:55:58;78.63;;;39.00;;
68310;SDS011;55157;51.036;17.058;2022-11-20T07:58:24;70.95;;;36.25;;
68310;SDS011;55157;51.036;17.058;2022-11-20T08:00:49;60.63;;;34.35;;
68310;SDS011;55157;51.036;17.058;2022-11-20T08:03:14;59.65;;;32.30;;
68310;SDS011;55157;51.036;17.058;2022-11-20T08:05:41;58.05;;;32.33;;
68310;SDS011;55157;51.036;17.058;2022-11-20T08:08:06;57.00;;;32.50;;
68310;SDS011;55157;51.036;17.058;2022-11-20T08:10:31;56.65;;;32.20;;
68310;SDS011;55157;51.036;17.058;2022-11-20T08:12:56;54.55;;;29.70;;
68310;SDS011;55157;51.036;17.058;2022-11-20T08:15:22;50.75;;;30.30;;
68310;SDS011;55157;51.036;17.058;2022-11-20T08:17:47;57.70;;;31.42;;
68310;SDS011;55157;51.036;17.058;2022-11-20T08:20:12;49.67;;;28.75;;
68310;SDS011;55157;51.036;17.058;2022-11-20T08:22:39;43.83;;;26.98;;
68310;SDS011;55157;51.036;17.058;2022-11-20T08:25:04;44.22;;;27.10;;
68310;SDS011;55157;51.036;17.058;2022-11-20T08:27:31;51.67;;;29.35;;
68310;SDS011;55157;51.036;17.058;2022-11-20T08:29:56;51.22;;;30.75;;
68310;SDS011;55157;51.036;17.058;2022-11-20T08:32:21;45.63;;;26.05;;
68310;SDS011;55157;51.036;17.058;2022-11-20T08:34:46;48.22;;;28.42;;
68310;SDS011;55157;51.036;17.058;2022-11-20T08:37:11;58.95;;;31.35;;
68310;SDS011;55157;51.036;17.058;2022-11-20T08:39:38;43.13;;;27.30;;
68310;SDS011;55157;51.036;17.058;2022-11-20T08:42:06;38.30;;;24.63;;
68310;SDS011;55157;51.036;17.058;2022-11-20T08:44:31;45.97;;;28.30;;
68310;SDS011;55157;51.036;17.058;2022-11-20T08:46:56;37.65;;;24.60;;
68310;SDS011;55157;51.036;17.058;2022-11-20T08:49:21;37.92;;;23.42;;
68310;SDS011;55157;51.036;17.058;2022-11-20T08:51:47;39.97;;;24.17;;
68310;SDS011;55157;51.036;17.058;2022-11-20T08:54:12;41.70;;;24.30;;
68310;SDS011;55157;51.036;17.058;2022-11-20T08:56:38;35.78;;;23.58;;
68310;SDS011;55157;51.036;17.058;2022-11-20T08:59:04;42.38;;;25.95;;
68310;SDS011;55157;51.036;17.058;2022-11-20T09:01:29;35.97;;;24.05;;
68310;SDS011;55157;51.036;17.058;2022-11-20T09:03:54;38.55;;;23.73;;
68310;SDS011;55157;51.036;17.058;2022-11-20T09:06:20;41.63;;;24.13;;
68310;SDS011;55157;51.036;17.058;2022-11-20T09:08:45;44.33;;;25.65;;
68310;SDS011;55157;51.036;17.058;2022-11-20T09:11:10;49.42;;;26.88;;
68310;SDS011;55157;51.036;17.058;2022-11-20T09:13:37;39.20;;;24.63;;
68310;SDS011;55157;51.036;17.058;2022-11-20T09:16:03;43.38;;;27.00;;
68310;SDS011;55157;51.036;17.058;2022-11-20T09:18:28;42.60;;;25.13;;
68310;SDS011;55157;51.036;17.058;2022-11-20T09:20:56;43.55;;;25.90;;
68310;SDS011;55157;51.036;17.058;2022-11-20T09:23:21;41.70;;;26.33;;
68310;SDS011;55157;51.036;17.058;2022-11-20T09:25:46;44.38;;;24.48;;
68310;SDS011;55157;51.036;17.058;2022-11-20T09:28:11;38.45;;;24.00;;
68310;SDS011;55157;51.036;17.058;2022-11-20T09:30:38;38.92;;;24.40;;
68310;SDS011;55157;51.036;17.058;2022-11-20T09:33:04;40.10;;;24.83;;
68310;SDS011;55157;51.036;17.058;2022-11-20T09:35:29;39.35;;;24.00;;
68310;SDS011;55157;51.036;17.058;2022-11-20T09:37:54;40.25;;;24.33;;
68310;SDS011;55157;51.036;17.058;2022-11-20T09:40:20;42.90;;;26.10;;
68310;SDS011;55157;51.036;17.058;2022-11-20T09:42:47;35.00;;;21.80;;
68310;SDS011;55157;51.036;17.058;2022-11-20T09:45:17;40.55;;;23.05;;
68310;SDS011;55157;51.036;17.058;2022-11-20T09:47:49;38.47;;;24.20;;
68310;SDS011;55157;51.036;17.058;2022-11-20T09:50:21;41.22;;;24.38;;
68310;SDS011;55157;51.036;17.058;2022-11-20T09:52:49;36.88;;;22.60;;
68310;SDS011;55157;51.036;17.058;2022-11-20T09:55:17;38.92;;;24.20;;
68310;SDS011;55157;51.036;17.058;2022-11-20T09:57:42;38.00;;;22.58;;
68310;SDS011;55157;51.036;17.058;2022-11-20T10:00:09;35.13;;;22.90;;
68310;SDS011;55157;51.036;17.058;2022-11-20T10:02:37;37.20;;;22.95;;
68310;SDS011;55157;51.036;17.058;2022-11-20T10:05:11;35.38;;;20.48;;
68310;SDS011;55157;51.036;17.058;2022-11-20T10:07:38;35.67;;;21.85;;
68310;SDS011;55157;51.036;17.058;2022-11-20T10:10:13;36.97;;;22.80;;
68310;SDS011;55157;51.036;17.058;2022-11-20T10:12:43;38.28;;;21.45;;
68310;SDS011;55157;51.036;17.058;2022-11-20T10:15:14;37.03;;;21.60;;
68310;SDS011;55157;51.036;17.058;2022-11-20T10:17:53;41.88;;;23.45;;
68310;SDS011;55157;51.036;17.058;2022-11-20T10:20:23;39.75;;;23.15;;
68310;SDS011;55157;51.036;17.058;2022-11-20T10:22:54;38.42;;;22.05;;
68310;SDS011;55157;51.036;17.058;2022-11-20T10:25:24;35.17;;;22.48;;
68310;SDS011;55157;51.036;17.058;2022-11-20T10:27:56;43.70;;;24.15;;
68310;SDS011;55157;51.036;17.058;2022-11-20T10:30:24;44.63;;;23.08;;
68310;SDS011;55157;51.036;17.058;2022-11-20T10:32:51;34.50;;;21.90;;
68310;SDS011;55157;51.036;17.058;2022-11-20T10:35:19;38.67;;;22.23;;
68310;SDS011;55157;51.036;17.058;2022-11-20T10:37:47;39.53;;;22.73;;
68310;SDS011;55157;51.036;17.058;2022-11-20T10:40:22;42.05;;;22.98;;
68310;SDS011;55157;51.036;17.058;2022-11-20T10:42:49;36.85;;;22.40;;
68310;SDS011;55157;51.036;17.058;2022-11-20T10:45:19;40.83;;;25.73;;
68310;SDS011;55157;51.036;17.058;2022-11-20T10:47:45;34.55;;;21.42;;
68310;SDS011;55157;51.036;17.058;2022-11-20T10:50:11;36.60;;;19.98;;
68310;SDS011;55157;51.036;17.058;2022-11-20T10:52:40;37.42;;;22.33;;
68310;SDS011;55157;51.036;17.058;2022-11-20T10:55:12;35.03;;;22.42;;
68310;SDS011;55157;51.036;17.058;2022-11-20T10:57:47;39.70;;;21.92;;
68310;SDS011;55157;51.036;17.058;2022-11-20T11:00:15;39.28;;;20.88;;
68310;SDS011;55157;51.036;17.058;2022-11-20T11:02:42;38.30;;;23.40;;
68310;SDS011;55157;51.036;17.058;2022-11-20T11:07:48;38.67;;;24.77;;
68310;SDS011;55157;51.036;17.058;2022-11-20T11:10:17;48.25;;;27.88;;
68310;SDS011;55157;51.036;17.058;2022-11-20T11:12:43;35.55;;;21.63;;
68310;SDS011;55157;51.036;17.058;2022-11-20T11:15:11;32.80;;;20.20;;
68310;SDS011;55157;51.036;17.058;2022-11-20T11:17:37;30.90;;;18.15;;
68310;SDS011;55157;51.036;17.058;2022-11-20T11:20:15;37.83;;;20.80;;
68310;SDS011;55157;51.036;17.058;2022-11-20T11:22:42;38.88;;;20.48;;
68310;SDS011;55157;51.036;17.058;2022-11-20T11:25:08;39.60;;;22.52;;
68310;SDS011;55157;51.036;17.058;2022-11-20T11:27:46;44.03;;;24.30;;
68310;SDS011;55157;51.036;17.058;2022-11-20T11:30:13;39.15;;;22.40;;
68310;SDS011;55157;51.036;17.058;2022-11-20T11:32:38;50.25;;;25.25;;
68310;SDS011;55157;51.036;17.058;2022-11-20T11:35:04;36.40;;;19.63;;
68310;SDS011;55157;51.036;17.058;2022-11-20T11:37:32;27.77;;;17.17;;
68310;SDS011;55157;51.036;17.058;2022-11-20T11:39:58;39.05;;;22.02;;
68310;SDS011;55157;51.036;17.058;2022-11-20T11:42:23;31.90;;;18.30;;
68310;SDS011;55157;51.036;17.058;2022-11-20T11:44:50;30.98;;;17.05;;
68310;SDS011;55157;51.036;17.058;2022-11-20T11:47:19;27.67;;;18.35;;
68310;SDS011;55157;51.036;17.058;2022-11-20T11:49:46;35.95;;;20.95;;
68310;SDS011;55157;51.036;17.058;2022-11-20T11:52:12;36.78;;;20.10;;
68310;SDS011;55157;51.036;17.058;2022-11-20T11:54:38;29.52;;;18.67;;
68310;SDS011;55157;51.036;17.058;2022-11-20T11:57:09;31.90;;;18.80;;
68310;SDS011;55157;51.036;17.058;2022-11-20T11:59:39;29.10;;;17.55;;
68310;SDS011;55157;51.036;17.058;2022-11-20T12:02:11;32.22;;;19.20;;
68310;SDS011;55157;51.036;17.058;2022-11-20T12:04:42;38.05;;;23.25;;
68310;SDS011;55157;51.036;17.058;2022-11-20T12:07:10;32.92;;;20.38;;
68310;SDS011;55157;51.036;17.058;2022-11-20T12:09:37;35.13;;;22.27;;
68310;SDS011;55157;51.036;17.058;2022-11-20T12:12:04;33.70;;;20.65;;
68310;SDS011;55157;51.036;17.058;2022-11-20T12:14:32;31.73;;;20.60;;
68310;SDS011;55157;51.036;17.058;2022-11-20T12:16:59;30.67;;;20.40;;
68310;SDS011;55157;51.036;17.058;2022-11-20T12:19:27;29.52;;;19.63;;
68310;SDS011;55157;51.036;17.058;2022-11-20T12:21:56;31.63;;;18.60;;
68310;SDS011;55157;51.036;17.058;2022-11-20T12:24:29;33.55;;;19.83;;
68310;SDS011;55157;51.036;17.058;2022-11-20T12:27:00;27.48;;;18.17;;
68310;SDS011;55157;51.036;17.058;2022-11-20T12:29:30;27.05;;;18.02;;
68310;SDS011;55157;51.036;17.058;2022-11-20T12:32:02;26.08;;;16.88;;
68310;SDS011;55157;51.036;17.058;2022-11-20T12:34:46;29.15;;;18.48;;
68310;SDS011;55157;51.036;17.058;2022-11-20T12:37:16;28.45;;;17.88;;
68310;SDS011;55157;51.036;17.058;2022-11-20T12:39:45;34.10;;;18.88;;
68310;SDS011;55157;51.036;17.058;2022-11-20T12:42:21;33.50;;;17.23;;
68310;SDS011;55157;51.036;17.058;2022-11-20T12:47:33;25.30;;;14.77;;
68310;SDS011;55157;51.036;17.058;2022-11-20T12:50:06;24.67;;;15.00;;
68310;SDS011;55157;51.036;17.058;2022-11-20T12:52:38;20.17;;;13.82;;
68310;SDS011;55157;51.036;17.058;2022-11-20T12:55:13;21.25;;;12.75;;
68310;SDS011;55157;51.036;17.058;2022-11-20T12:57:42;22.02;;;13.68;;
68310;SDS011;55157;51.036;17.058;2022-11-20T13:00:14;21.00;;;12.57;;
68310;SDS011;55157;51.036;17.058;2022-11-20T13:05:43;27.25;;;13.45;;
68310;SDS011;55157;51.036;17.058;2022-11-20T13:08:14;21.70;;;12.73;;
68310;SDS011;55157;51.036;17.058;2022-11-20T13:10:45;29.17;;;15.82;;
68310;SDS011;55157;51.036;17.058;2022-11-20T13:13:12;26.48;;;14.95;;
68310;SDS011;55157;51.036;17.058;2022-11-20T13:15:41;25.40;;;13.32;;
68310;SDS011;55157;51.036;17.058;2022-11-20T13:18:08;26.13;;;15.20;;
68310;SDS011;55157;51.036;17.058;2022-11-20T13:20:34;56.35;;;26.13;;
68310;SDS011;55157;51.036;17.058;2022-11-20T13:23:02;28.55;;;15.38;;
68310;SDS011;55157;51.036;17.058;2022-11-20T13:25:28;30.35;;;15.55;;
68310;SDS011;55157;51.036;17.058;2022-11-20T13:27:54;36.50;;;18.98;;
68310;SDS011;55157;51.036;17.058;2022-11-20T13:30:21;33.35;;;18.85;;
68310;SDS011;55157;51.036;17.058;2022-11-20T13:32:47;32.58;;;16.45;;
68310;SDS011;55157;51.036;17.058;2022-11-20T13:35:13;32.80;;;15.35;;
68310;SDS011;55157;51.036;17.058;2022-11-20T13:37:48;26.30;;;15.55;;
68310;SDS011;55157;51.036;17.058;2022-11-20T13:40:26;34.70;;;17.98;;
68310;SDS011;55157;51.036;17.058;2022-11-20T13:42:55;33.28;;;16.75;;
68310;SDS011;55157;51.036;17.058;2022-11-20T13:45:22;29.73;;;16.50;;
68310;SDS011;55157;51.036;17.058;2022-11-20T13:47:48;26.08;;;15.38;;
68310;SDS011;55157;51.036;17.058;2022-11-20T13:50:13;26.13;;;14.32;;
68310;SDS011;55157;51.036;17.058;2022-11-20T13:52:39;32.97;;;16.30;;
68310;SDS011;55157;51.036;17.058;2022-11-20T13:55:11;28.10;;;15.93;;
68310;SDS011;55157;51.036;17.058;2022-11-20T13:57:42;26.05;;;14.60;;
68310;SDS011;55157;51.036;17.058;2022-11-20T14:00:12;31.10;;;15.55;;
68310;SDS011;55157;51.036;17.058;2022-11-20T14:02:38;27.67;;;16.48;;
68310;SDS011;55157;51.036;17.058;2022-11-20T14:05:03;25.40;;;15.32;;
68310;SDS011;55157;51.036;17.058;2022-11-20T14:07:31;33.17;;;17.17;;
68310;SDS011;55157;51.036;17.058;2022-11-20T14:09:57;34.72;;;16.10;;
68310;SDS011;55157;51.036;17.058;2022-11-20T14:12:23;25.55;;;15.25;;
68310;SDS011;55157;51.036;17.058;2022-11-20T14:14:53;31.02;;;16.83;;
68310;SDS011;55157;51.036;17.058;2022-11-20T14:17:20;33.00;;;16.80;;